x

8651370 - Duck Pier, Nc (dukn7) Weather Station

10:54pm - Fri 18th Apr 2014 All times are EDT. -4 hours from GMT.

  • Wind
    18mph, 20mph gusts
  • Sea Temp 50°f
  • Air Temp 47°f
  • Sea Pressure 1023.6mb
  •  8651370 - Duck Pier, Nc
  •  8651370 - Duck Pier, Nc

More Historic Weather Station data

Upgrade to MSW Pro to gain access to the past 30 days of data for over 8000 Wavebouys and Weather Stations around the globe.

Join Pro

Comparision Forecast

View Surf forecast
   
Fri 04/18 10:54pm 18 20 mph 1023.6mb 50f 47f
10:48pm 20 21 mph 1023.4mb 51f 47f
10:42pm 20 22 mph 1023.4mb 50f 47f
10:36pm 18 22 mph 1023.3mb 51f 47f
10:30pm 20 22 mph 1023.3mb 51f 47f
10:24pm 17 20 mph 1023.7mb 51f 47f
10:18pm 18 21 mph 1023.7mb 51f 47f
10:12pm 17 21 mph 1024mb 51f 47f
10:06pm 18 21 mph 1024mb 51f 47f
10:00pm 18 22 mph 1024mb 51f 47f
9:54pm 18 20 mph 1024.1mb 51f 47f
9:48pm 16 18 mph 1024.6mb 51f 46f
9:42pm 15 17 mph 1025mb 51f 47f
9:36pm 14 15 mph 1025.3mb 51f 46f
9:30pm 14 15 mph 1025.4mb 51f 47f
9:24pm 15 17 mph 1025.3mb 51f 46f
9:18pm 15 16 mph 1025.2mb 51f 46f
9:12pm 15 17 mph 1025.4mb 51f 46f
9:06pm 14 16 mph 1025.3mb 51f 46f
9:00pm 14 15 mph 1025.5mb 52f 46f
8:54pm 14 16 mph 1025.3mb 51f 46f
8:48pm 16 18 mph 1025mb 51f 46f
8:42pm 18 20 mph 1024.9mb 51f 46f
8:36pm 16 20 mph 1025mb 51f 46f
8:30pm 21 22 mph 1024.9mb 51f 46f
8:24pm 21 22 mph 1024.9mb 51f 46f
8:18pm 21 22 mph 1025mb 51f 46f
8:12pm 20 22 mph 1025.1mb 51f 46f
8:06pm 18 21 mph 1025.3mb 51f 46f
8:00pm 18 21 mph 1025.3mb 52f 46f
7:54pm 16 18 mph 1025.3mb 51f 46f
7:48pm 16 20 mph 1025.5mb 51f 46f
7:42pm 17 20 mph 1025.2mb 52f 46f
7:36pm 18 21 mph 1025.1mb 52f 46f
7:30pm 17 21 mph 1025.1mb 51f 46f
7:24pm 17 22 mph 1024.9mb 52f 46f
7:18pm 20 23 mph 1024.9mb 52f 46f
7:12pm 18 22 mph 1024.8mb 52f 46f
7:06pm 17 21 mph 1024.9mb 51f 46f
7:00pm 18 22 mph 1024.8mb 51f 46f
6:54pm 20 22 mph 1024.6mb 51f 46f
6:48pm 21 22 mph 1024.4mb 51f 46f
6:42pm 20 22 mph 1024.4mb 51f 46f
6:36pm 21 22 mph 1024.4mb 52f 46f
6:30pm 18 21 mph 1024.8mb 52f 46f
6:24pm 18 21 mph 1024.9mb 52f 46f
6:18pm 16 22 mph 1025mb 52f 46f
6:12pm 18 22 mph 1024.9mb 52f 46f
6:06pm 20 22 mph 1024.6mb 52f 46f
6:00pm 18 23 mph 1024.5mb 52f 46f
5:54pm 20 23 mph 1024.5mb 52f 46f
5:48pm 20 22 mph 1024.6mb 52f 46f
5:42pm 20 23 mph 1024.7mb 52f 46f
5:36pm 21 22 mph 1025mb 52f 46f
5:30pm 18 22 mph 1025.1mb 52f 46f
5:24pm 18 22 mph 1025.2mb 52f 46f
5:18pm 15 20 mph 1025.4mb 52f 46f
5:12pm 16 21 mph 1025.5mb 52f 46f
5:06pm 15 20 mph 1025.6mb 52f 47f
5:00pm 17 21 mph 1025.7mb 52f 46f
4:54pm 16 20 mph 1025.9mb 52f 46f
4:48pm 16 21 mph 1025.8mb 52f 46f
4:42pm 17 20 mph 1025.8mb 52f 46f
4:36pm 15 20 mph 1025.9mb 52f 46f
4:30pm 16 20 mph 1025.9mb 52f 46f
4:24pm 18 21 mph 1026.1mb 52f 46f
4:18pm 16 20 mph 1026.2mb 52f 46f
4:12pm 15 21 mph 1026.3mb 52f 46f
4:06pm 18 21 mph 1026.4mb 52f 46f
4:00pm 18 21 mph 1026.4mb 52f 46f
3:54pm 18 22 mph 1026.5mb 52f 46f
3:48pm 20 23 mph 1026.5mb 52f 46f
3:42pm 20 22 mph 1026.6mb 52f 46f
3:36pm 18 22 mph 1026.8mb 52f 46f
3:30pm 18 22 mph 1026.9mb 52f 46f
3:24pm 17 22 mph 1027.1mb 52f 46f
3:18pm 17 22 mph 1027.4mb 52f 46f
3:12pm 16 20 mph 1027.4mb 52f 46f
3:06pm 20 24 mph 1027.4mb 52f 46f
3:00pm 22 25 mph 1027.3mb 52f 46f
2:54pm 21 24 mph 1027.3mb 52f 46f
2:48pm 22 24 mph 1027.3mb 51f 46f
2:42pm 20 23 mph 1027.7mb 51f 46f
2:36pm 23 25 mph 1027.8mb 51f 46f
2:30pm 18 23 mph 1027.9mb 51f 46f
2:24pm 20 24 mph 1027.8mb 52f 46f
2:18pm 21 25 mph 1027.8mb 51f 46f
2:12pm 18 25 mph 1027.9mb 51f 46f
2:06pm 20 24 mph 1027.9mb 51f 46f
2:00pm 18 25 mph 1028mb 51f 46f
1:54pm 20 23 mph 1028mb 51f 47f
1:48pm 18 21 mph 1028.3mb 51f 46f
1:42pm 18 22 mph 1028.5mb 51f 46f
1:36pm 17 21 mph 1028.4mb 51f 46f
1:30pm 18 22 mph 1028.3mb 51f 46f
1:24pm 20 22 mph 1028.2mb 51f 46f
1:18pm 17 21 mph 1028.4mb 51f 46f
1:12pm 18 23 mph 1028.2mb 51f 46f
1:06pm 20 25 mph 1028.3mb 51f 46f
1:00pm 18 25 mph 1028.5mb 51f 47f
12:54pm 20 23 mph 1028.5mb 51f 46f
12:48pm 17 23 mph 1028.6mb 51f 47f
12:42pm 20 23 mph 1028.5mb 51f 46f
12:36pm 20 24 mph 1028.6mb 51f 47f
12:30pm 21 25 mph 1028.4mb 51f 47f
12:24pm 18 25 mph 1028.4mb 51f 47f
12:18pm 24 26 mph 1028.6mb 51f 46f
12:12pm 23 28 mph 1028.5mb 51f 46f
12:06pm 21 26 mph 1028.6mb 51f 46f
12:00pm 20 23 mph 1028.7mb 51f 46f
11:54am 22 25 mph 1028.9mb 51f 46f
11:48am 20 23 mph 1028.9mb 51f 46f
11:42am 22 25 mph 1029.1mb 51f 46f
11:36am 18 23 mph 1029.1mb 51f 46f
11:30am 20 22 mph 1029mb 51f 46f
11:24am 20 23 mph 1028.8mb 51f 46f
11:18am 18 23 mph 1028.9mb 51f 46f
11:12am 20 23 mph 1029mb 51f 46f
11:06am 20 23 mph 1028.9mb 51f 46f
11:00am 21 24 mph 1028.7mb 51f 46f
10:54am 20 23 mph 1028.8mb 51f 46f
10:48am 18 23 mph 1029mb 51f 46f
10:42am 18 23 mph 1029.2mb 51f 46f
10:36am 21 25 mph 1029.3mb 51f 46f
10:30am 21 25 mph 1029.1mb 51f 46f
10:24am 21 24 mph 1029.1mb 51f 46f
10:18am 22 26 mph 1028.9mb 51f 46f
10:12am 24 26 mph 1028.5mb 51f 46f
10:06am 22 26 mph 1028.5mb 51f 46f
10:00am 22 26 mph 1028.3mb 51f 46f
9:54am 21 24 mph 1028.3mb 51f 46f
9:48am 20 25 mph 1028.5mb 51f 46f
9:42am 20 28 mph 1028.6mb 51f 45f
9:36am 21 25 mph 1028.6mb 51f 46f
9:30am 24 26 mph 1028.7mb 51f 45f
9:24am 20 23 mph 1028.7mb 51f 46f
9:18am 20 23 mph 1028.9mb 51f 46f
9:12am 22 26 mph 1029mb 51f 46f
9:06am 23 25 mph 1028.9mb 51f 45f
9:00am 21 25 mph 1028.9mb 51f 45f
8:54am 18 22 mph 1029.1mb 51f 46f
8:48am 18 25 mph 1029.1mb 51f 45f
8:42am 21 23 mph 1028.8mb 51f 45f
8:36am 21 23 mph 1028.9mb 51f 45f
8:30am 21 25 mph 1028.9mb 51f 46f
8:24am 21 25 mph 1029.1mb 51f 46f
8:18am 22 24 mph 1028.9mb 51f 45f
8:12am 21 24 mph 1028.9mb 51f 45f
8:06am 21 28 mph 1029mb 51f 45f
8:00am 22 29 mph 1029mb 51f 46f
7:54am 25 29 mph 1028.9mb 51f 46f
7:48am 24 30 mph 1028.8mb 51f 45f
7:42am 24 28 mph 1028.8mb 51f 45f
7:36am 22 26 mph 1028.8mb 51f 45f
7:30am 21 25 mph 1028.8mb 51f 45f
7:24am 21 26 mph 1028.8mb 51f 45f
7:18am 23 29 mph 1029mb 51f 45f
7:12am 23 26 mph 1029.1mb 51f 45f
7:06am 24 26 mph 1029.1mb 51f 45f
7:00am 20 25 mph 1029.2mb 51f 45f
6:54am 20 26 mph 1029.2mb 51f 45f
6:48am 20 26 mph 1029.1mb 51f 45f
6:42am 20 24 mph 1029.1mb 51f 45f
6:36am 22 24 mph 1029.1mb 51f 45f
6:30am 20 24 mph 1029.1mb 51f 45f
6:24am 20 23 mph 1029.2mb 51f 45f
6:18am 21 23 mph 1029.1mb 51f 45f
6:12am 18 22 mph 1029mb 51f 45f
6:06am 18 23 mph 1028.8mb 51f 46f
6:00am 18 23 mph 1028.8mb 51f 45f
5:54am 18 22 mph 1028.8mb 51f 45f
5:48am 18 23 mph 1028.6mb 51f 45f
5:42am 17 22 mph 1028.5mb 51f 45f
5:36am 20 23 mph 1028.5mb 51f 45f
5:30am 16 20 mph 1028.5mb 51f 46f
5:24am 20 22 mph 1028.4mb 51f 45f
5:18am 18 21 mph 1028.4mb 51f 45f
5:12am 16 21 mph 1028.4mb 51f 46f
5:06am 17 22 mph 1028.4mb 51f 45f
5:00am 16 22 mph 1028.4mb 51f 45f
4:54am 17 22 mph 1028.3mb 51f 46f
4:48am 18 22 mph 1028.3mb 51f 45f
4:42am 20 22 mph 1028.4mb 51f 46f
4:36am 18 22 mph 1028.2mb 51f 45f
4:30am 20 22 mph 1028.2mb 51f 45f
4:24am 18 23 mph 1028.3mb 51f 46f
4:18am 20 21 mph 1028.1mb 51f 45f
4:12am 20 23 mph 1028.1mb 51f 46f
4:06am 20 23 mph 1028mb 51f 46f
4:00am 20 25 mph 1027.9mb 51f 46f
3:54am 20 23 mph 1028mb 51f 46f
3:48am 20 24 mph 1028.1mb 51f 46f
3:42am 20 25 mph 1028.1mb 51f 45f
3:36am 20 23 mph 1028.1mb 51f 46f
3:30am 20 25 mph 1028.2mb 51f 46f
3:24am 18 24 mph 1028.3mb 51f 46f
3:18am 22 25 mph 1028.2mb 51f 45f
3:12am 21 23 mph 1028.2mb 51f 46f
3:06am 21 29 mph 1028.2mb 51f 46f
3:00am 21 25 mph 1028.3mb 51f 46f
2:54am 22 25 mph 1028.3mb 51f 46f
2:48am 21 22 mph 1028.3mb 51f 46f
2:42am 21 23 mph 1028.5mb 51f 46f
2:36am 21 23 mph 1028.7mb 51f 46f
2:30am 21 23 mph 1028.7mb 51f 46f
2:24am 22 25 mph 1028.9mb 51f 46f
2:18am 22 25 mph 1028.9mb 51f 46f
2:12am 22 26 mph 1028.9mb 51f 46f
2:06am 22 26 mph 1029.1mb 51f 46f
2:00am 23 25 mph 1029.4mb 51f 46f
1:54am 22 24 mph 1029.5mb 51f 46f
1:48am 22 24 mph 1029.6mb 51f 46f
1:42am 21 25 mph 1029.8mb 51f 46f
1:36am 21 24 mph 1029.9mb 51f 46f
1:30am 21 23 mph 1030mb 51f 46f
1:24am 21 25 mph 1030.1mb 51f 46f
1:18am 21 25 mph 1030.3mb 51f 46f
1:12am 21 26 mph 1030.4mb 51f 46f
1:06am 23 28 mph 1030.4mb 51f 46f
1:00am 22 25 mph 1030.6mb 51f 46f
12:54am 21 25 mph 1030.8mb 51f 46f
12:48am 23 26 mph 1031mb 51f 46f
12:42am 21 25 mph 1031mb 51f 46f
12:36am 21 23 mph 1031.1mb 51f 46f
12:30am 21 24 mph 1031.2mb 51f 46f
12:24am 20 26 mph 1031.1mb 51f 46f
12:18am 21 26 mph 1031.1mb 51f 46f
12:12am 23 26 mph 1031.1mb 51f 46f
12:06am 20 26 mph 1031.1mb 51f 46f
12:00am 24 28 mph 1031.2mb 51f 46f
Thu 04/17 11:54pm 21 28 mph 1031.1mb 51f 47f
11:48pm 23 28 mph 1031.2mb 51f 46f
11:42pm 24 29 mph 1031.1mb 51f 46f
11:36pm 23 28 mph 1031.4mb 51f 46f
11:30pm 23 29 mph 1031.5mb 51f 46f
11:24pm 23 29 mph 1031.5mb 51f 46f
11:18pm 25 29 mph 1031.5mb 51f 46f
11:12pm 26 30 mph 1031.4mb 51f 46f
11:06pm 25 30 mph 1031.5mb 51f 46f
11:00pm 24 28 mph 1031.4mb 51f 46f
10:54pm 25 30 mph 1031.3mb 51f 46f
10:48pm 26 29 mph 1031.4mb 51f 46f
10:42pm 24 31 mph 1031.4mb 51f 46f
10:36pm 28 30 mph 1031.3mb 51f 46f
10:30pm 26 32 mph 1031.2mb 51f 46f
10:24pm 28 31 mph 1031.1mb 51f 46f
10:18pm 29 31 mph 1031.3mb 51f 46f
10:12pm 26 30 mph 1031.3mb 51f 46f
10:06pm 24 31 mph 1031.3mb 51f 46f
10:00pm 29 33 mph 1031.3mb 51f 46f
9:54pm 26 33 mph 1031.2mb 51f 46f
9:48pm 29 33 mph 1031.1mb 51f 46f
9:42pm 28 32 mph 1031mb 51f 47f
9:36pm 28 33 mph 1031mb 51f 47f
9:30pm 31 34 mph 1030.8mb 51f 46f
9:24pm 28 33 mph 1030.8mb 51f 46f
9:18pm 30 32 mph 1030.9mb 51f 46f
9:12pm 31 36 mph 1030.8mb 51f 46f
9:06pm 29 34 mph 1030.8mb 51f 46f
9:00pm 30 33 mph 1030.8mb 51f 46f
8:54pm 33 36 mph 1030.8mb 51f 46f
8:48pm 31 34 mph 1030.8mb 51f 46f
8:42pm 30 36 mph 1030.8mb 51f 46f
8:36pm 30 34 mph 1030.7mb 51f 46f
8:30pm 30 34 mph 1030.8mb 51f 47f
8:24pm 31 36 mph 1030.9mb 51f 46f
8:18pm 32 36 mph 1030.8mb 51f 46f
8:12pm 30 36 mph 1030.9mb 51f 46f
8:06pm 31 34 mph 1031mb 51f 46f
8:00pm 30 34 mph 1031.1mb 51f 47f
7:54pm 29 33 mph 1031.1mb 51f 47f
7:48pm 30 33 mph 1031.1mb 51f 47f
7:42pm 30 33 mph 1031.2mb 51f 47f
7:36pm 29 34 mph 1031.2mb 51f 47f
7:30pm 29 33 mph 1031.1mb 51f 47f
7:24pm 30 34 mph 1031.2mb 51f 47f
7:18pm 29 33 mph 1031.2mb 51f 47f
7:12pm 29 33 mph 1031.2mb 51f 47f
7:06pm 29 34 mph 1031.3mb 51f 47f
7:00pm 29 33 mph 1031.2mb 51f 47f
6:54pm 29 33 mph 1031.3mb 51f 47f
6:48pm 28 32 mph 1031.3mb 51f 47f
6:42pm 29 33 mph 1031.3mb 51f 47f
6:36pm 29 32 mph 1031.3mb 51f 47f
6:30pm 29 33 mph 1031.4mb 51f 47f
6:24pm 31 33 mph 1031.5mb 51f 47f
6:18pm 26 33 mph 1031.5mb 51f 47f
6:12pm 29 32 mph 1031.6mb 51f 47f
6:06pm 29 32 mph 1031.6mb 51f 47f
6:00pm 29 31 mph 1031.7mb 51f 47f
5:54pm 26 30 mph 1031.8mb 51f 47f
5:48pm 25 30 mph 1031.8mb 51f 47f
5:42pm 28 30 mph 1031.9mb 51f 47f
5:36pm 28 30 mph 1032mb 51f 47f
5:30pm 28 30 mph 1032mb 51f 47f
5:24pm 29 32 mph 1032mb 51f 47f
5:18pm 28 31 mph 1031.9mb 51f 47f
5:12pm 28 31 mph 1032mb 51f 47f
5:06pm 26 30 mph 1032.1mb 51f 47f
5:00pm 29 31 mph 1032mb 51f 47f
4:54pm 26 31 mph 1032mb 51f 47f
4:48pm 29 31 mph 1032mb 51f 47f
4:42pm 29 32 mph 1032mb 51f 47f
4:36pm 28 31 mph 1032mb 51f 47f
4:30pm 29 31 mph 1032mb 51f 47f
4:24pm 28 31 mph 1032mb 51f 47f
4:18pm 29 31 mph 1032mb 51f 47f
4:12pm 28 32 mph 1031.9mb 51f 47f
4:06pm 26 33 mph 1031.9mb 51f 47f
4:00pm 29 32 mph 1031.8mb 51f 47f
3:54pm 29 31 mph 1031.9mb 51f 47f
3:48pm 28 31 mph 1032mb 51f 47f
3:42pm 26 30 mph 1032mb 51f 47f
3:36pm 28 32 mph 1032mb 51f 47f
3:30pm 30 32 mph 1032mb 51f 47f
3:24pm 29 32 mph 1032mb 51f 47f
3:18pm 29 32 mph 1032mb 51f 47f
3:12pm 29 32 mph 1031.9mb 51f 47f
3:06pm 29 31 mph 1032mb 51f 47f
3:00pm 29 32 mph 1032.1mb 51f 47f
2:54pm 29 32 mph 1032.2mb 50f 47f
2:48pm 28 33 mph 1032.2mb 51f 47f
2:42pm 29 32 mph 1032.3mb 51f 47f
2:36pm 29 32 mph 1032.4mb 50f 47f
2:30pm 29 33 mph 1032.4mb 50f 47f
2:24pm 31 34 mph 1032.4mb 50f 47f
2:18pm 30 34 mph 1032.5mb 50f 47f
2:12pm 30 33 mph 1032.6mb 50f 47f
2:06pm 28 33 mph 1032.8mb 50f 47f
2:00pm 29 34 mph 1032.8mb 50f 47f
1:54pm 28 33 mph 1032.8mb 50f 47f
1:48pm 30 33 mph 1032.8mb 50f 47f
1:42pm 30 34 mph 1033mb 50f 47f
1:36pm 29 33 mph 1033mb 50f 47f
1:30pm 29 32 mph 1033mb 50f 47f
1:24pm 28 32 mph 1033mb 50f 47f
1:18pm 30 33 mph 1033mb 50f 47f
1:12pm 28 32 mph 1033.1mb 50f 47f
1:06pm 29 32 mph 1033.2mb 50f 47f
1:00pm 25 31 mph 1033.1mb 50f 47f
12:54pm 29 33 mph 1033.1mb 50f 47f
12:48pm 29 33 mph 1033.1mb 50f 47f
12:42pm 30 34 mph 1033.1mb 50f 47f
12:36pm 29 34 mph 1033.2mb 50f 47f
12:30pm 31 33 mph 1033.2mb 50f 47f
12:24pm 26 33 mph 1033.1mb 49f 47f
12:12pm 29 36 mph 1033.2mb 49f 47f
12:06pm 30 36 mph 1033.1mb 49f 47f
12:00pm 29 33 mph 1033.2mb 49f 47f
11:54am 31 36 mph 1033.1mb 49f 47f
11:48am 29 33 mph 1033.1mb 49f 47f
11:42am 28 33 mph 1033.1mb 49f 47f
11:36am 31 34 mph 1032.9mb 49f 47f
11:30am 29 33 mph 1033.1mb 49f 47f
11:24am 30 34 mph 1033mb 49f 47f
11:18am 30 36 mph 1033.1mb 49f 47f
11:12am 26 34 mph 1033.1mb 49f 47f
11:06am 29 37 mph 1033.1mb 49f 47f
11:00am 31 36 mph 1033.1mb 49f 47f
10:54am 32 37 mph 1033mb 49f 47f
10:48am 29 36 mph 1033mb 49f 47f
10:42am 32 36 mph 1032.8mb 49f 47f
10:36am 30 34 mph 1033mb 49f 47f
10:30am 29 34 mph 1033mb 49f 47f
10:24am 29 33 mph 1033mb 49f 47f
10:18am 26 31 mph 1033mb 49f 47f
10:12am 26 32 mph 1032.9mb 49f 47f
10:06am 26 31 mph 1033mb 49f 47f
10:00am 26 34 mph 1032.9mb 49f 47f
9:54am 25 31 mph 1032.8mb 49f 47f
9:48am 28 31 mph 1032.7mb 48f 47f
9:42am 26 30 mph 1032.7mb 48f 47f
9:36am 26 30 mph 1032.8mb 48f 47f
9:30am 22 29 mph 1032.8mb 48f 47f
9:24am 24 29 mph 1032.6mb 48f 47f
9:18am 23 29 mph 1032.6mb 48f 47f
9:12am 28 31 mph 1032.5mb 48f 47f
9:06am 25 29 mph 1032.4mb 48f 47f
9:00am 26 29 mph 1032.4mb 48f 47f
8:54am 23 28 mph 1032.3mb 48f 47f
8:48am 25 32 mph 1032.2mb 48f 47f
8:42am 23 29 mph 1032.3mb 48f 47f
8:36am 24 28 mph 1032.3mb 48f 46f
8:30am 23 30 mph 1032.2mb 48f 46f
8:24am 24 30 mph 1032.2mb 48f 46f
8:18am 23 28 mph 1032.2mb 48f 46f
8:12am 22 29 mph 1032.1mb 48f 46f
8:06am 23 30 mph 1032.2mb 48f 46f
8:00am 23 31 mph 1032.1mb 48f 46f
7:54am 26 31 mph 1032.1mb 48f 46f
7:48am 25 29 mph 1032mb 48f 46f
7:42am 26 31 mph 1031.9mb 48f 46f
7:36am 28 32 mph 1031.7mb 48f 46f
7:30am 28 31 mph 1031.7mb 48f 46f
7:24am 25 31 mph 1031.6mb 48f 46f
7:18am 28 31 mph 1031.6mb 48f 46f
7:12am 29 32 mph 1031.5mb 48f 46f
7:06am 25 31 mph 1031.5mb 48f 46f
7:00am 26 31 mph 1031.3mb 48f 46f
6:54am 28 32 mph 1031.3mb 48f 46f
6:48am 25 32 mph 1031.3mb 48f 46f
6:42am 23 30 mph 1031.1mb 48f 46f
6:36am 28 32 mph 1031.1mb 48f 46f
6:30am 25 34 mph 1030.9mb 47f 46f
6:24am 25 33 mph 1030.7mb 48f 46f
6:18am 22 32 mph 1030.7mb 48f 46f
6:12am 26 31 mph 1030.6mb 48f 46f
6:06am 28 32 mph 1030.5mb 48f 46f
6:00am 29 32 mph 1030.5mb 48f 46f
5:54am 28 31 mph 1030.4mb 48f 46f
5:48am 30 32 mph 1030.4mb 48f 46f
5:42am 29 33 mph 1030.2mb 48f 46f
5:36am 29 33 mph 1030mb 48f 45f
5:30am 28 33 mph 1030mb 48f 46f
5:24am 29 33 mph 1030mb 48f 46f
5:18am 29 32 mph 1030.1mb 48f 46f
5:12am 28 32 mph 1030.2mb 48f 45f
5:06am 29 32 mph 1030.2mb 48f 45f
5:00am 26 31 mph 1030.2mb 48f 45f
4:54am 26 31 mph 1030.1mb 48f 45f
4:48am 29 32 mph 1030.1mb 48f 45f
4:42am 29 31 mph 1030.1mb 48f 45f
4:36am 26 30 mph 1030mb 48f 45f
4:30am 30 32 mph 1030mb 48f 45f
4:24am 28 31 mph 1030mb 47f 45f
4:18am 29 31 mph 1030mb 47f 45f
4:12am 28 31 mph 1029.9mb 47f 45f
4:06am 29 32 mph 1029.9mb 47f 45f
4:00am 25 32 mph 1030mb 47f 45f
3:54am 29 32 mph 1029.8mb 47f 45f
3:48am 28 31 mph 1029.9mb 47f 45f
3:42am 28 30 mph 1029.9mb 47f 45f
3:36am 24 32 mph 1029.9mb 47f 45f
3:30am 29 30 mph 1029.8mb 47f 44f
3:24am 25 30 mph 1029.8mb 47f 45f
3:18am 28 29 mph 1029.9mb 47f 44f
3:12am 28 30 mph 1029.9mb 47f 45f
3:06am 25 29 mph 1029.9mb 47f 44f
3:00am 24 30 mph 1029.8mb 47f 44f
2:54am 28 30 mph 1029.7mb 47f 44f
2:48am 25 30 mph 1029.8mb 47f 45f
2:42am 25 29 mph 1029.7mb 47f 44f
2:36am 24 30 mph 1029.7mb 47f 44f
2:30am 25 29 mph 1029.8mb 47f 44f
2:24am 26 29 mph 1029.9mb 47f 44f
2:18am 25 30 mph 1029.9mb 47f 44f
2:12am 25 29 mph 1029.9mb 47f 44f
2:06am 26 30 mph 1029.9mb 47f 44f
2:00am 25 29 mph 1029.9mb 47f 44f
1:54am 25 29 mph 1029.9mb 47f 44f
1:48am 24 29 mph 1030.2mb 47f 44f
1:42am 25 29 mph 1030.1mb 47f 44f
1:36am 25 28 mph 1030.2mb 47f 44f
1:30am 26 29 mph 1030.2mb 47f 44f
1:24am 29 30 mph 1030.2mb 47f 44f
1:18am 24 29 mph 1030.3mb 47f 44f
1:12am 26 30 mph 1030.3mb 47f 44f
1:06am 29 31 mph 1030.2mb 47f 44f
1:00am 26 29 mph 1030.5mb 47f 44f
12:54am 29 30 mph 1030.5mb 47f 44f
12:48am 26 30 mph 1030.6mb 47f 44f
12:42am 28 30 mph 1030.7mb 47f 44f
12:36am 26 29 mph 1030.9mb 47f 44f
12:30am 26 30 mph 1030.9mb 47f 44f
12:24am 26 29 mph 1030.9mb 47f 44f
12:18am 25 29 mph 1030.9mb 47f 44f
12:12am 26 29 mph 1031mb 47f 44f
12:06am 25 29 mph 1031.1mb 47f 44f
12:00am 28 30 mph 1031.2mb 47f 44f
Wed 04/16 11:54pm 25 29 mph 1031.2mb 47f 44f
11:48pm 25 28 mph 1031.2mb 47f 44f
11:42pm 24 29 mph 1031.1mb 47f 44f
11:36pm 24 29 mph 1031.2mb 47f 44f
11:30pm 24 26 mph 1031.3mb 47f 43f
11:24pm 24 29 mph 1031.3mb 47f 43f
11:18pm 24 29 mph 1031.3mb 47f 43f
11:12pm 24 28 mph 1031.3mb 47f 43f
11:06pm 24 28 mph 1031.3mb 47f 43f
11:00pm 22 26 mph 1031.2mb 47f 43f
10:54pm 23 28 mph 1031.2mb 47f 43f
10:48pm 25 28 mph 1031.2mb 47f 43f
10:42pm 22 28 mph 1031.3mb 48f 43f
10:36pm 24 26 mph 1031.4mb 48f 43f
10:30pm 23 28 mph 1031.4mb 48f 43f
10:24pm 24 28 mph 1031.4mb 48f 43f
10:18pm 25 26 mph 1031.4mb 48f 43f
10:12pm 23 25 mph 1031.4mb 48f 43f
10:06pm 23 26 mph 1031.3mb 48f 43f
10:00pm 22 25 mph 1031.3mb 48f 43f
9:54pm 21 25 mph 1031.3mb 48f 43f
9:48pm 22 26 mph 1031.3mb 48f 43f
9:42pm 22 25 mph 1031.3mb 48f 43f
9:36pm 23 26 mph 1031.1mb 48f 43f
9:30pm 22 26 mph 1031.2mb 48f 43f
9:24pm 24 26 mph 1031.2mb 48f 43f
9:18pm 23 28 mph 1031mb 48f 43f
9:12pm 22 28 mph 1031mb 48f 43f
9:06pm 23 28 mph 1030.9mb 48f 43f
9:00pm 25 28 mph 1030.9mb 48f 42f
8:54pm 25 26 mph 1030.8mb 48f 42f
8:48pm 22 28 mph 1030.6mb 48f 42f
8:42pm 22 25 mph 1030.5mb 48f 43f
8:36pm 23 28 mph 1030.5mb 48f 43f
8:30pm 23 25 mph 1030.4mb 48f 42f
8:24pm 22 25 mph 1030.3mb 48f 42f
8:18pm 23 26 mph 1030.3mb 48f 42f
8:12pm 22 26 mph 1030.2mb 48f 42f
8:06pm 23 25 mph 1030mb 48f 42f
8:00pm 23 25 mph 1030mb 48f 42f
7:54pm 22 26 mph 1029.9mb 48f 42f
7:48pm 22 25 mph 1029.8mb 48f 42f
7:42pm 21 26 mph 1029.7mb 48f 42f
7:36pm 22 26 mph 1029.6mb 48f 42f
7:30pm 22 25 mph 1029.5mb 48f 42f
7:24pm 24 28 mph 1029.4mb 48f 42f
7:18pm 23 26 mph 1029.3mb 48f 43f
7:12pm 22 25 mph 1029.2mb 48f 43f
7:06pm 22 25 mph 1029.1mb 48f 42f
7:00pm 23 26 mph 1029.1mb 48f 43f
6:54pm 22 24 mph 1029.1mb 48f 43f
6:48pm 23 25 mph 1029.1mb 48f 43f
6:42pm 24 26 mph 1029.1mb 48f 43f
6:36pm 23 26 mph 1029.1mb 48f 42f
6:30pm 24 26 mph 1029mb 48f 42f
6:24pm 23 28 mph 1029mb 48f 43f
6:18pm 24 26 mph 1028.9mb 48f 43f
6:12pm 23 25 mph 1028.8mb 48f 42f
6:06pm 23 25 mph 1028.8mb 48f 43f
6:00pm 21 26 mph 1028.7mb 48f 42f
5:54pm 23 25 mph 1028.6mb 48f 43f
5:48pm 24 28 mph 1028.5mb 48f 42f
5:42pm 23 28 mph 1028.4mb 48f 43f
5:36pm 23 28 mph 1028.3mb 48f 42f
5:30pm 23 28 mph 1028.2mb 48f 42f
5:24pm 23 28 mph 1028.1mb 48f 42f
5:18pm 22 26 mph 1028.1mb 48f 42f
5:12pm 23 26 mph 1028.1mb 48f 42f
5:06pm 24 26 mph 1028mb 48f 42f
5:00pm 23 26 mph 1027.9mb 48f 42f
4:54pm 23 28 mph 1028mb 48f 42f
4:48pm 22 28 mph 1027.8mb 48f 42f
4:42pm 25 29 mph 1027.9mb 48f 42f
4:36pm 24 29 mph 1028mb 48f 42f
4:30pm 23 28 mph 1028mb 48f 42f
4:24pm 24 28 mph 1027.9mb 48f 42f
4:18pm 26 29 mph 1027.9mb 49f 42f
4:12pm 24 28 mph 1028mb 49f 42f
4:06pm 25 29 mph 1028mb 48f 42f
4:00pm 21 29 mph 1027.9mb 48f 42f
3:54pm 20 30 mph 1028mb 49f 42f
3:48pm 22 26 mph 1027.9mb 49f 42f
3:42pm 22 29 mph 1027.8mb 49f 42f
3:36pm 24 28 mph 1027.9mb 48f 42f
3:30pm 23 28 mph 1027.9mb 48f 41f
3:24pm 22 26 mph 1028mb 48f 41f
3:18pm 24 30 mph 1028mb 48f 41f
3:12pm 23 31 mph 1028mb 48f 41f
3:06pm 25 29 mph 1028mb 49f 41f
3:00pm 24 30 mph 1028.1mb 48f 41f
2:54pm 23 31 mph 1028.1mb 49f 41f
2:48pm 23 28 mph 1028.1mb 49f 41f
2:42pm 22 29 mph 1028.2mb 48f 42f
2:36pm 22 29 mph 1028.1mb 48f 41f
2:30pm 25 30 mph 1028.1mb 49f 41f
2:24pm 26 30 mph 1028mb 49f 41f
2:18pm 25 29 mph 1028.1mb 49f 41f
2:12pm 23 30 mph 1028mb 49f 41f
2:06pm 22 32 mph 1027.9mb 49f 41f
2:00pm 25 30 mph 1027.8mb 48f 41f
1:54pm 25 30 mph 1027.8mb 48f 41f
1:48pm 26 32 mph 1027.7mb 49f 41f
1:42pm 28 32 mph 1027.6mb 48f 41f
1:36pm 26 30 mph 1027.7mb 48f 41f
1:30pm 29 34 mph 1027.6mb 48f 41f
1:24pm 25 33 mph 1027.6mb 48f 40f
1:18pm 24 32 mph 1027.5mb 49f 41f
1:12pm 25 30 mph 1027.6mb 48f 41f
1:06pm 24 30 mph 1027.4mb 48f 41f
1:00pm 24 31 mph 1027.5mb 48f 41f
12:54pm 25 32 mph 1027.4mb 48f 41f
12:48pm 24 31 mph 1027.5mb 48f 41f
12:42pm 25 31 mph 1027.5mb 48f 40f
12:36pm 26 31 mph 1027.5mb 48f 40f
12:30pm 25 36 mph 1027.4mb 48f 40f
12:24pm 26 31 mph 1027.4mb 48f 40f
12:18pm 24 32 mph 1027.2mb 48f 41f
12:12pm 24 29 mph 1027.2mb 48f 40f
12:06pm 24 32 mph 1027mb 48f 40f
12:00pm 26 34 mph 1027.1mb 48f 40f
11:54am 22 31 mph 1027.2mb 48f 41f
11:48am 23 33 mph 1027.2mb 48f 40f
11:42am 24 31 mph 1027mb 48f 40f
11:36am 25 29 mph 1027mb 48f 40f
11:30am 25 34 mph 1027mb 48f 40f
11:24am 24 32 mph 1027.1mb 48f 40f
11:18am 26 32 mph 1027.1mb 48f 40f
11:12am 24 33 mph 1027.1mb 48f 40f
11:06am 26 31 mph 1027.1mb 48f 40f
11:00am 23 32 mph 1027mb 47f 40f
10:54am 23 29 mph 1026.8mb 47f 40f
10:48am 24 32 mph 1026.7mb 48f 40f
10:42am 24 33 mph 1026.6mb 48f 40f
10:36am 25 31 mph 1026.5mb 48f 40f
10:30am 29 32 mph 1026.2mb 48f 40f
10:24am 26 36 mph 1026.3mb 48f 40f
10:18am 26 32 mph 1026.1mb 48f 40f
10:12am 26 34 mph 1025.9mb 47f 40f
10:06am 29 36 mph 1025.6mb 48f 40f
10:00am 29 33 mph 1025.5mb 48f 40f
9:54am 30 34 mph 1025.3mb 48f 40f
9:48am 29 33 mph 1025.1mb 48f 40f
9:42am 32 36 mph 1025mb 48f 40f
9:36am 31 34 mph 1024.8mb 48f 40f
9:30am 29 37 mph 1024.7mb 48f 39f
9:24am 28 34 mph 1024.6mb 47f 40f
9:18am 32 36 mph 1024.3mb 48f 40f
9:12am 32 36 mph 1024.2mb 48f 40f
9:06am 33 37 mph 1024mb 48f 40f
9:00am 31 37 mph 1023.7mb 48f 40f
8:54am 32 38 mph 1023.5mb 48f 40f
8:48am 31 39 mph 1023.3mb 48f 40f
8:42am 32 38 mph 1023mb 48f 40f
8:36am 30 39 mph 1023mb 48f 40f
8:30am 34 40 mph 1022.8mb 48f 40f
8:24am 34 39 mph 1022.6mb 47f 40f
8:18am 33 41 mph 1022.5mb 48f 40f
8:12am 34 43 mph 1022.4mb 48f 40f
8:06am 34 39 mph 1022.3mb 48f 40f
8:00am 32 40 mph 1022.4mb 48f 40f
7:54am 29 39 mph 1022.3mb 48f 40f
7:48am 34 39 mph 1022mb 48f 40f
7:42am 32 38 mph 1022mb 48f 40f
7:36am 34 39 mph 1021.8mb 48f 40f
7:30am 31 38 mph 1021.8mb 48f -
7:24am 33 39 mph 1021.5mb 48f -
7:18am 33 43 mph 1021.5mb 48f -
7:12am 32 38 mph 1021.1mb 48f -
7:06am 31 39 mph 1021.2mb 48f -
7:00am 34 38 mph 1020.9mb 48f -
6:54am 34 41 mph 1020.7mb 48f -
6:48am 36 40 mph 1020.5mb 48f -
6:42am 31 44 mph 1020.3mb 48f -
6:36am 32 40 mph 1020.2mb 47f -
6:30am 38 44 mph 1019.8mb 48f -
6:24am 33 43 mph 1019.8mb 47f -
6:18am 33 40 mph 1019.8mb 48f -
6:12am 32 40 mph 1019.6mb 48f -
6:06am 36 41 mph 1019.3mb 48f -
6:00am 37 44 mph 1019.1mb 48f -
5:54am 34 41 mph 1018.9mb 48f -
5:48am 33 39 mph 1018.7mb 48f -
5:42am 34 43 mph 1018.5mb 48f -
5:36am 37 43 mph 1018.4mb 48f -
5:30am 37 40 mph 1018.3mb 47f -
5:24am 36 44 mph 1018.2mb 47f -
5:18am 38 43 mph 1018mb 47f -
5:12am 36 43 mph 1017.8mb 48f -
5:06am 38 43 mph 1017.7mb 48f -
5:00am 37 41 mph 1017.6mb 48f -
4:54am 37 43 mph 1017.6mb 47f -
4:48am 36 43 mph 1017.4mb 48f -
4:42am 36 45 mph 1017.4mb 47f -
4:36am 36 44 mph 1017.1mb 47f -
4:30am 36 41 mph 1016.8mb 47f -
4:24am 37 41 mph 1016.9mb 48f -
4:18am 36 41 mph 1016.7mb 48f -
4:12am 36 39 mph 1016.9mb 47f -
4:06am 38 43 mph 1016.8mb 47f -
4:00am 34 39 mph 1016.6mb 47f -
3:54am 32 40 mph 1016.5mb 47f -
3:48am 32 39 mph 1016.2mb 48f -
3:42am 30 37 mph 1016.2mb 48f -
3:36am 30 36 mph 1015.9mb 48f -
3:30am 30 41 mph 1015.5mb 48f -
3:24am 32 40 mph 1015.5mb 48f -
3:18am 36 41 mph 1015mb 48f -
3:12am 36 46 mph 1015mb 48f -
3:06am 37 44 mph 1014.6mb 48f -
3:00am 37 43 mph 1014.3mb 48f -
2:54am 41 45 mph 1014mb 48f -
2:48am 38 47 mph 1013.9mb 48f -
2:42am 38 47 mph 1013.8mb 48f -
2:36am 36 41 mph 1013.8mb 48f -
2:30am 29 34 mph 1014.2mb 48f -
2:24am 33 38 mph 1014.2mb 48f -
2:18am 36 40 mph 1013.8mb 48f -
2:12am 37 41 mph 1013.6mb 48f -
2:06am 33 44 mph 1013.7mb 47f -
2:00am 37 41 mph 1013.7mb 47f -
1:54am 34 43 mph 1013.8mb 47f -
1:48am 36 40 mph 1013.6mb 47f -
1:42am 36 44 mph 1012.9mb 47f -
1:36am 40 44 mph 1012.7mb 47f -
1:30am 38 44 mph 1013.7mb 47f -
1:24am 41 49 mph 1013mb 47f -
1:18am 41 51 mph 1012.5mb 47f -
1:12am 44 51 mph 1011.9mb 47f -
1:06am 40 47 mph 1011mb 47f -
1:00am 38 47 mph 1011.3mb 47f -
12:54am 37 46 mph 1011.7mb 47f -
12:48am 44 49 mph 1010.9mb 47f -
12:42am 40 45 mph 1011.3mb 47f -
12:36am 37 43 mph 1011.1mb 47f -
12:30am 34 41 mph 1011.4mb 47f -
12:24am 37 43 mph 1011mb 47f -
12:18am 38 46 mph 1011mb 47f -
12:12am 36 45 mph 1010.9mb 47f -
12:06am 39 48 mph 1010mb 47f -
12:00am 40 47 mph 1009.9mb 47f -
Tue 04/15 11:54pm 41 48 mph 1010mb 47f -
11:48pm 34 45 mph 1010.3mb 47f -
11:42pm 41 47 mph 1009.4mb 47f -
11:36pm 39 47 mph 1009.6mb 47f -
11:30pm 38 47 mph 1009.8mb 47f -
11:24pm 43 48 mph 1008.6mb 47f -
11:18pm 39 49 mph 1008.3mb 47f -
11:12pm 40 49 mph 1008.1mb 47f -
11:06pm 43 49 mph 1008.2mb 47f -
11:00pm 41 47 mph 1008.3mb 47f -
10:54pm 41 53 mph 1007.6mb 47f -
10:42pm 44 49 mph 1006.5mb 47f -
10:36pm 39 45 mph 1007.1mb 47f -
10:30pm 38 46 mph 1007.3mb 47f -
10:24pm 40 46 mph 1007.2mb 47f -
10:18pm 40 46 mph 1006.5mb 47f -
10:12pm 40 49 mph 1006.6mb 47f -
10:06pm 39 48 mph 1006.5mb 47f -
10:00pm 36 43 mph 1006.8mb 47f -
9:54pm 37 55 mph 1007.1mb 47f -
9:48pm 44 53 mph 1005.9mb 47f -
9:42pm 39 51 mph 1005.5mb 47f -
9:36pm 31 38 mph 1005.4mb 47f -
9:30pm 25 34 mph 1006.3mb 47f -
9:24pm 10 14 mph 1006.1mb 47f 69f
9:18pm 11 17 mph 1005.1mb 47f 69f
9:12pm 11 15 mph 1004.8mb 47f 69f
9:06pm 13 17 mph 1004.7mb 47f 69f
9:00pm 13 16 mph 1004.5mb 47f 69f
8:54pm 14 17 mph 1004.4mb 47f 69f
8:48pm 15 20 mph 1004.4mb 47f 69f
8:42pm 16 21 mph 1004.4mb 47f 69f
8:36pm 17 24 mph 1004.4mb 47f 69f
8:30pm 18 23 mph 1004.3mb 47f 69f
8:24pm 17 25 mph 1004.2mb 47f 69f
8:18pm 20 24 mph 1004.1mb 47f 69f
8:12pm 17 21 mph 1004.1mb 47f 69f
8:06pm 17 22 mph 1003.9mb 47f 69f
8:00pm 17 25 mph 1003.8mb 47f 69f
7:54pm 17 23 mph 1003.7mb 47f 69f
7:48pm 21 24 mph 1003.5mb 47f 69f
7:42pm 21 25 mph 1003.3mb 47f 69f
7:36pm 18 24 mph 1003.1mb 47f 69f
7:30pm 20 26 mph 1003.1mb 47f 69f
7:24pm 18 23 mph 1003.1mb 47f 69f
7:18pm 20 24 mph 1002.9mb 47f 69f
7:12pm 18 23 mph 1003mb 47f 69f
7:06pm 18 22 mph 1002.9mb 47f 69f
7:00pm 16 21 mph 1003mb 47f 69f
6:54pm 13 15 mph 1003.4mb 47f 68f
6:48pm 15 21 mph 1003.7mb 47f 68f
6:42pm 14 21 mph 1003.6mb 47f 68f
6:36pm 16 21 mph 1003.2mb 47f 67f
6:30pm 16 20 mph 1003.3mb 47f 68f
6:24pm 14 20 mph 1003.7mb 48f 69f
6:18pm 18 24 mph 1003.9mb 48f 69f
6:12pm 21 25 mph 1003.8mb 48f 70f
6:06pm 21 29 mph 1003.9mb 48f 70f
6:00pm 22 25 mph 1003.9mb 48f 70f
5:54pm 23 26 mph 1003.9mb 48f 70f
5:48pm 23 33 mph 1004mb 48f 70f
5:42pm 21 29 mph 1004.2mb 48f 70f
5:36pm 22 26 mph 1004.2mb 48f 70f
5:30pm 22 29 mph 1004.1mb 48f 70f
5:24pm 23 28 mph 1004mb 48f 70f
5:18pm 24 31 mph 1004mb 48f 70f
5:12pm 23 30 mph 1004mb 48f 71f
5:06pm 22 28 mph 1004mb 48f 71f
5:00pm 22 28 mph 1004.2mb 47f 71f
4:54pm 22 26 mph 1004.2mb 48f 71f
4:48pm 20 26 mph 1004.2mb 48f 71f
4:42pm 20 24 mph 1004.2mb 48f 71f
4:36pm 17 21 mph 1004.2mb 48f 71f
4:30pm 18 23 mph 1004.2mb 48f 70f
4:24pm 20 24 mph 1004.2mb 48f 70f
4:18pm 20 23 mph 1004.2mb 48f 70f
4:12pm 20 23 mph 1004.3mb 48f 70f
4:06pm 20 26 mph 1004.3mb 48f 70f
4:00pm 20 25 mph 1004.3mb 48f 70f
3:54pm 20 26 mph 1004.2mb 48f 70f
3:48pm 21 26 mph 1004.4mb 48f 69f
3:42pm 21 25 mph 1004.4mb 48f 69f
3:36pm 21 29 mph 1004.6mb 48f 69f
3:30pm 22 29 mph 1004.6mb 48f 69f
3:24pm 23 28 mph 1004.7mb 48f 70f
3:18pm 22 28 mph 1004.7mb 48f 70f
3:12pm 22 28 mph 1004.6mb 48f 70f
3:06pm 22 26 mph 1004.7mb 48f 70f
3:00pm 22 25 mph 1004.8mb 48f 70f
2:54pm 22 28 mph 1004.8mb 48f 70f
2:48pm 22 26 mph 1004.9mb 47f 70f
2:42pm 23 30 mph 1005mb 47f 70f
2:36pm 24 29 mph 1004.9mb 47f 70f
2:30pm 23 29 mph 1004.9mb - 70f
2:24pm 21 29 mph 1005mb - 70f
2:18pm 23 28 mph 1004.8mb 47f 71f
2:12pm 23 29 mph 1004.8mb 47f 71f
2:06pm 26 33 mph 1005mb 47f 71f
2:00pm 22 30 mph 1005.1mb 47f 71f
1:54pm 21 26 mph 1005.3mb 47f 70f
1:48pm 24 30 mph 1005mb 47f 70f
1:42pm 23 33 mph 1005.4mb 47f 69f
1:36pm 21 25 mph 1005.6mb 47f 70f
1:30pm 22 28 mph 1005.7mb 47f 69f
1:24pm 22 29 mph 1005.8mb 47f 69f
1:18pm 24 30 mph 1005.9mb 47f 69f
1:12pm 24 34 mph 1005.8mb 47f 69f
1:06pm 23 29 mph 1006mb 47f 69f
1:00pm 22 28 mph 1006.1mb 47f 69f
12:54pm 22 25 mph 1006.2mb 47f 69f
12:48pm 22 30 mph 1006.1mb 47f 69f
12:42pm 23 26 mph 1006.1mb 47f 69f
12:36pm 22 29 mph 1006.1mb 47f 69f
12:30pm 23 29 mph 1006.3mb 47f 68f
12:24pm 23 32 mph 1006.4mb 47f 69f
12:18pm 28 34 mph 1006.3mb 47f 69f
12:12pm 26 33 mph 1006.4mb 47f 68f
12:06pm 25 36 mph 1006.4mb 47f 68f
12:00pm 26 32 mph 1006.7mb 47f 68f
11:54am 22 31 mph 1006.5mb 47f 70f
11:48am 26 31 mph 1006.4mb 47f 71f
11:42am 26 34 mph 1006.3mb 47f 71f
11:36am 26 36 mph 1006.3mb 47f 71f
11:30am 26 33 mph 1006.3mb 47f 71f
11:24am 24 30 mph 1006.5mb 47f 70f
11:18am 23 29 mph 1006.7mb 47f 70f
11:12am 23 30 mph 1006.8mb 47f 70f
11:06am 23 29 mph 1007mb 47f 70f
11:00am 22 30 mph 1007mb 47f 70f
10:54am 24 32 mph 1007mb 47f 69f
10:48am 25 30 mph 1007mb 47f 70f
10:42am 21 28 mph 1007.2mb 47f 70f
10:36am 23 30 mph 1007.2mb 47f 70f
10:30am 24 29 mph 1007.3mb 47f 70f
10:24am 21 30 mph 1007.4mb 47f 70f
10:18am 22 31 mph 1007.5mb 47f 70f
10:12am 24 31 mph 1007.5mb 47f 70f
10:06am 24 30 mph 1007.6mb 47f 69f
10:00am 22 28 mph 1007.8mb 47f 69f
9:54am 22 28 mph 1007.9mb 47f 69f
9:48am 21 28 mph 1007.9mb 47f 69f
9:42am 21 26 mph 1007.9mb 47f 68f
9:36am 22 25 mph 1007.9mb 47f 68f
9:30am 20 25 mph 1007.9mb 47f 68f
9:24am 22 25 mph 1007.8mb 47f 68f
9:18am 22 25 mph 1007.8mb 47f 68f
9:12am 21 25 mph 1008mb 47f 68f
9:06am 23 28 mph 1007.9mb 47f 68f
9:00am 21 29 mph 1008mb 47f 67f
8:54am 22 26 mph 1008mb 47f 68f
8:48am 23 29 mph 1008.1mb 47f 68f
8:42am 22 26 mph 1008.1mb 47f 68f
8:36am 21 25 mph 1008mb 47f 67f
8:30am 22 25 mph 1008.1mb 47f 67f
8:24am 20 23 mph 1008.2mb 47f 67f
8:18am 20 24 mph 1008.2mb 47f 66f
8:12am 22 28 mph 1008.2mb 47f 67f
8:06am 23 29 mph 1008.2mb 47f 67f
8:00am 22 30 mph 1008.3mb 47f 67f
7:54am 22 31 mph 1008.4mb 47f 67f
7:48am 22 29 mph 1008.4mb 47f 66f
7:42am 23 31 mph 1008.4mb 47f 67f
7:36am 22 28 mph 1008.5mb 47f 67f
7:30am 22 30 mph 1008.4mb 47f 67f
7:24am 29 31 mph 1008.2mb 47f 67f
7:18am 20 25 mph 1008.4mb 47f 67f
7:12am 18 23 mph 1008.5mb 47f 66f
7:06am 20 25 mph 1008.5mb 47f 66f
7:00am 17 23 mph 1008.5mb 47f 66f
6:54am 20 25 mph 1008.4mb 47f 66f
6:48am 20 28 mph 1008.4mb 47f 66f
6:42am 22 30 mph 1008.5mb 47f 66f
6:36am 25 34 mph 1008.4mb 47f 66f
6:30am 29 34 mph 1008.3mb 47f 66f
6:24am 28 32 mph 1008.4mb 47f 65f
6:18am 22 32 mph 1008.4mb 47f 65f
6:12am 22 31 mph 1008.5mb 47f 66f
6:06am 24 31 mph 1008.5mb 47f 66f
6:00am 25 34 mph 1008.7mb 47f 66f
5:54am 28 33 mph 1008.7mb 47f 66f
5:48am 25 31 mph 1008.8mb 47f 68f
5:42am 25 33 mph 1008.8mb 47f 69f
5:36am 26 32 mph 1008.7mb 47f 69f
5:30am 25 31 mph 1008.6mb 47f 68f
5:24am 26 32 mph 1008.7mb 47f 68f
5:18am 24 33 mph 1008.9mb 47f 68f
5:12am 28 33 mph 1008.8mb 47f 68f
5:06am 25 33 mph 1008.8mb 47f 67f
5:00am 25 32 mph 1008.9mb 47f 67f
4:54am 28 34 mph 1008.9mb 47f 67f
4:48am 23 30 mph 1009mb 47f 67f
4:42am 22 30 mph 1009.1mb 47f 67f
4:36am 24 30 mph 1009.3mb 47f 66f
4:30am 23 30 mph 1009.4mb 47f 66f
4:24am 22 33 mph 1009.5mb 47f 66f
4:18am 26 31 mph 1009.5mb 47f 67f
4:12am 22 26 mph 1009.7mb 47f 66f
4:06am 17 22 mph 1009.9mb 47f 66f
4:00am 17 21 mph 1010.1mb 47f 66f
3:54am 20 26 mph 1010.1mb 47f 66f
3:48am 18 29 mph 1010.2mb 47f 66f
3:42am 21 26 mph 1010.1mb 47f 66f
3:36am 24 28 mph 1010.2mb 47f 67f